sensor_id;sensor_type;location;lat;lon;timestamp;P1;durP1;ratioP1;P2;durP2;ratioP2
2850;SDS011;1433;49.976;8.342;2023-04-25T00:00:41;3.83;;;3.40;;
2850;SDS011;1433;49.976;8.342;2023-04-25T00:03:07;4.03;;;3.60;;
2850;SDS011;1433;49.976;8.342;2023-04-25T00:05:34;5.33;;;4.50;;
2850;SDS011;1433;49.976;8.342;2023-04-25T00:08:03;4.33;;;3.67;;
2850;SDS011;1433;49.976;8.342;2023-04-25T00:10:31;7.50;;;4.90;;
2850;SDS011;1433;49.976;8.342;2023-04-25T00:12:57;6.40;;;4.80;;
2850;SDS011;1433;49.976;8.342;2023-04-25T00:15:24;8.23;;;6.30;;
2850;SDS011;1433;49.976;8.342;2023-04-25T00:17:50;9.77;;;6.00;;
2850;SDS011;1433;49.976;8.342;2023-04-25T00:20:18;12.53;;;5.80;;
2850;SDS011;1433;49.976;8.342;2023-04-25T00:22:44;7.83;;;4.83;;
2850;SDS011;1433;49.976;8.342;2023-04-25T00:25:11;7.40;;;4.90;;
2850;SDS011;1433;49.976;8.342;2023-04-25T00:27:37;8.60;;;4.33;;
2850;SDS011;1433;49.976;8.342;2023-04-25T00:30:05;6.23;;;4.33;;
2850;SDS011;1433;49.976;8.342;2023-04-25T00:32:32;6.20;;;4.63;;
2850;SDS011;1433;49.976;8.342;2023-04-25T00:34:58;8.20;;;4.67;;
2850;SDS011;1433;49.976;8.342;2023-04-25T00:37:24;6.27;;;5.30;;
2850;SDS011;1433;49.976;8.342;2023-04-25T00:39:51;5.47;;;4.37;;
2850;SDS011;1433;49.976;8.342;2023-04-25T00:42:19;5.43;;;4.10;;
2850;SDS011;1433;49.976;8.342;2023-04-25T00:44:46;5.07;;;4.57;;
2850;SDS011;1433;49.976;8.342;2023-04-25T00:47:13;4.60;;;4.13;;
2850;SDS011;1433;49.976;8.342;2023-04-25T00:49:40;4.40;;;3.43;;
2850;SDS011;1433;49.976;8.342;2023-04-25T00:52:06;5.57;;;4.30;;
2850;SDS011;1433;49.976;8.342;2023-04-25T00:54:33;3.80;;;3.20;;
2850;SDS011;1433;49.976;8.342;2023-04-25T00:57:00;3.77;;;3.23;;
2850;SDS011;1433;49.976;8.342;2023-04-25T00:59:27;4.80;;;4.30;;
2850;SDS011;1433;49.976;8.342;2023-04-25T01:01:55;4.70;;;3.27;;
2850;SDS011;1433;49.976;8.342;2023-04-25T01:04:22;3.33;;;3.07;;
2850;SDS011;1433;49.976;8.342;2023-04-25T01:06:48;4.37;;;3.47;;
2850;SDS011;1433;49.976;8.342;2023-04-25T01:09:15;4.07;;;3.40;;
2850;SDS011;1433;49.976;8.342;2023-04-25T01:11:42;4.13;;;3.73;;
2850;SDS011;1433;49.976;8.342;2023-04-25T01:14:10;4.57;;;3.83;;
2850;SDS011;1433;49.976;8.342;2023-04-25T01:16:36;5.10;;;3.70;;
2850;SDS011;1433;49.976;8.342;2023-04-25T01:19:06;3.50;;;3.20;;
2850;SDS011;1433;49.976;8.342;2023-04-25T01:21:39;6.23;;;3.53;;
2850;SDS011;1433;49.976;8.342;2023-04-25T01:24:05;5.97;;;4.60;;
2850;SDS011;1433;49.976;8.342;2023-04-25T01:26:32;5.50;;;4.50;;
2850;SDS011;1433;49.976;8.342;2023-04-25T01:29:01;7.60;;;4.37;;
2850;SDS011;1433;49.976;8.342;2023-04-25T01:31:27;4.20;;;3.23;;
2850;SDS011;1433;49.976;8.342;2023-04-25T01:33:54;4.77;;;3.90;;
2850;SDS011;1433;49.976;8.342;2023-04-25T01:36:20;4.20;;;3.80;;
2850;SDS011;1433;49.976;8.342;2023-04-25T01:38:47;4.00;;;3.60;;
2850;SDS011;1433;49.976;8.342;2023-04-25T01:41:14;4.93;;;4.43;;
2850;SDS011;1433;49.976;8.342;2023-04-25T01:43:40;9.80;;;5.10;;
2850;SDS011;1433;49.976;8.342;2023-04-25T01:46:06;7.73;;;4.47;;
2850;SDS011;1433;49.976;8.342;2023-04-25T01:48:33;6.03;;;4.20;;
2850;SDS011;1433;49.976;8.342;2023-04-25T01:50:59;9.20;;;4.07;;
2850;SDS011;1433;49.976;8.342;2023-04-25T01:53:28;7.33;;;4.67;;
2850;SDS011;1433;49.976;8.342;2023-04-25T01:55:54;7.60;;;4.10;;
2850;SDS011;1433;49.976;8.342;2023-04-25T01:58:22;4.23;;;3.53;;
2850;SDS011;1433;49.976;8.342;2023-04-25T02:00:53;4.23;;;3.73;;
2850;SDS011;1433;49.976;8.342;2023-04-25T02:03:20;3.77;;;3.40;;
2850;SDS011;1433;49.976;8.342;2023-04-25T02:05:46;4.37;;;3.97;;
2850;SDS011;1433;49.976;8.342;2023-04-25T02:08:13;5.87;;;5.30;;
2850;SDS011;1433;49.976;8.342;2023-04-25T02:10:40;5.40;;;4.03;;
2850;SDS011;1433;49.976;8.342;2023-04-25T02:13:08;5.17;;;4.10;;
2850;SDS011;1433;49.976;8.342;2023-04-25T02:15:52;4.83;;;3.77;;
2850;SDS011;1433;49.976;8.342;2023-04-25T02:18:19;4.50;;;3.90;;
2850;SDS011;1433;49.976;8.342;2023-04-25T02:20:47;4.40;;;4.00;;
2850;SDS011;1433;49.976;8.342;2023-04-25T02:23:13;6.47;;;5.03;;
2850;SDS011;1433;49.976;8.342;2023-04-25T02:25:41;5.87;;;4.47;;
2850;SDS011;1433;49.976;8.342;2023-04-25T02:28:08;5.47;;;4.83;;
2850;SDS011;1433;49.976;8.342;2023-04-25T02:30:35;7.90;;;4.57;;
2850;SDS011;1433;49.976;8.342;2023-04-25T02:33:03;4.00;;;3.60;;
2850;SDS011;1433;49.976;8.342;2023-04-25T02:35:29;4.43;;;3.77;;
2850;SDS011;1433;49.976;8.342;2023-04-25T02:37:56;6.00;;;5.50;;
2850;SDS011;1433;49.976;8.342;2023-04-25T02:40:23;6.67;;;4.47;;
2850;SDS011;1433;49.976;8.342;2023-04-25T02:42:49;7.37;;;4.60;;
2850;SDS011;1433;49.976;8.342;2023-04-25T02:45:15;5.03;;;4.27;;
2850;SDS011;1433;49.976;8.342;2023-04-25T02:47:41;12.80;;;4.73;;
2850;SDS011;1433;49.976;8.342;2023-04-25T02:50:07;5.47;;;3.60;;
2850;SDS011;1433;49.976;8.342;2023-04-25T02:52:34;6.40;;;5.37;;
2850;SDS011;1433;49.976;8.342;2023-04-25T02:55:03;4.10;;;3.70;;
2850;SDS011;1433;49.976;8.342;2023-04-25T02:57:30;4.43;;;3.80;;
2850;SDS011;1433;49.976;8.342;2023-04-25T02:59:56;8.13;;;5.70;;
2850;SDS011;1433;49.976;8.342;2023-04-25T03:02:22;4.70;;;4.03;;
2850;SDS011;1433;49.976;8.342;2023-04-25T03:04:49;5.17;;;4.03;;
2850;SDS011;1433;49.976;8.342;2023-04-25T03:07:16;5.17;;;4.67;;
2850;SDS011;1433;49.976;8.342;2023-04-25T03:09:42;4.30;;;3.90;;
2850;SDS011;1433;49.976;8.342;2023-04-25T03:12:08;5.77;;;4.50;;
2850;SDS011;1433;49.976;8.342;2023-04-25T03:14:35;7.83;;;5.00;;
2850;SDS011;1433;49.976;8.342;2023-04-25T03:17:01;6.90;;;5.90;;
2850;SDS011;1433;49.976;8.342;2023-04-25T03:19:28;7.20;;;5.33;;
2850;SDS011;1433;49.976;8.342;2023-04-25T03:21:54;7.37;;;5.10;;
2850;SDS011;1433;49.976;8.342;2023-04-25T03:24:21;8.43;;;4.37;;
2850;SDS011;1433;49.976;8.342;2023-04-25T03:26:48;6.60;;;5.60;;
2850;SDS011;1433;49.976;8.342;2023-04-25T03:29:14;4.63;;;4.23;;
2850;SDS011;1433;49.976;8.342;2023-04-25T03:31:41;5.93;;;4.97;;
2850;SDS011;1433;49.976;8.342;2023-04-25T03:34:08;4.97;;;3.97;;
2850;SDS011;1433;49.976;8.342;2023-04-25T03:36:35;8.33;;;4.77;;
2850;SDS011;1433;49.976;8.342;2023-04-25T03:39:02;6.60;;;4.83;;
2850;SDS011;1433;49.976;8.342;2023-04-25T03:41:29;6.60;;;5.40;;
2850;SDS011;1433;49.976;8.342;2023-04-25T03:43:57;6.67;;;5.30;;
2850;SDS011;1433;49.976;8.342;2023-04-25T03:46:24;11.10;;;5.67;;
2850;SDS011;1433;49.976;8.342;2023-04-25T03:48:50;6.10;;;4.80;;
2850;SDS011;1433;49.976;8.342;2023-04-25T03:51:18;6.07;;;5.47;;
2850;SDS011;1433;49.976;8.342;2023-04-25T03:53:45;6.23;;;4.83;;
2850;SDS011;1433;49.976;8.342;2023-04-25T03:56:30;9.27;;;5.27;;
2850;SDS011;1433;49.976;8.342;2023-04-25T03:58:58;6.80;;;5.67;;
2850;SDS011;1433;49.976;8.342;2023-04-25T04:01:25;8.10;;;5.93;;
2850;SDS011;1433;49.976;8.342;2023-04-25T04:03:52;13.60;;;6.57;;
2850;SDS011;1433;49.976;8.342;2023-04-25T04:06:18;7.57;;;5.83;;
2850;SDS011;1433;49.976;8.342;2023-04-25T04:08:48;11.00;;;6.77;;
2850;SDS011;1433;49.976;8.342;2023-04-25T04:11:14;14.93;;;5.70;;
2850;SDS011;1433;49.976;8.342;2023-04-25T04:13:41;7.70;;;6.20;;
2850;SDS011;1433;49.976;8.342;2023-04-25T04:16:07;13.23;;;5.70;;
2850;SDS011;1433;49.976;8.342;2023-04-25T04:18:34;7.03;;;4.63;;
2850;SDS011;1433;49.976;8.342;2023-04-25T04:21:01;6.60;;;4.00;;
2850;SDS011;1433;49.976;8.342;2023-04-25T04:23:30;6.00;;;4.23;;
2850;SDS011;1433;49.976;8.342;2023-04-25T04:25:57;6.47;;;3.43;;
2850;SDS011;1433;49.976;8.342;2023-04-25T04:28:28;6.27;;;4.10;;
2850;SDS011;1433;49.976;8.342;2023-04-25T04:31:06;5.83;;;4.87;;
2850;SDS011;1433;49.976;8.342;2023-04-25T04:33:33;7.43;;;4.17;;
2850;SDS011;1433;49.976;8.342;2023-04-25T04:36:03;5.17;;;2.90;;
2850;SDS011;1433;49.976;8.342;2023-04-25T04:38:30;6.80;;;4.03;;
2850;SDS011;1433;49.976;8.342;2023-04-25T04:40:58;11.03;;;4.77;;
2850;SDS011;1433;49.976;8.342;2023-04-25T04:43:29;7.23;;;3.67;;
2850;SDS011;1433;49.976;8.342;2023-04-25T04:46:03;7.33;;;4.93;;
2850;SDS011;1433;49.976;8.342;2023-04-25T04:48:47;4.03;;;3.63;;
2850;SDS011;1433;49.976;8.342;2023-04-25T04:51:24;4.20;;;3.13;;
2850;SDS011;1433;49.976;8.342;2023-04-25T04:53:54;6.80;;;4.03;;
2850;SDS011;1433;49.976;8.342;2023-04-25T04:56:24;8.73;;;4.27;;
2850;SDS011;1433;49.976;8.342;2023-04-25T04:59:05;6.33;;;3.93;;
2850;SDS011;1433;49.976;8.342;2023-04-25T05:01:49;4.70;;;3.80;;
2850;SDS011;1433;49.976;8.342;2023-04-25T05:04:15;7.23;;;4.17;;
2850;SDS011;1433;49.976;8.342;2023-04-25T05:06:43;3.87;;;3.37;;
2850;SDS011;1433;49.976;8.342;2023-04-25T05:09:24;6.33;;;4.00;;
2850;SDS011;1433;49.976;8.342;2023-04-25T05:11:56;4.70;;;3.70;;
2850;SDS011;1433;49.976;8.342;2023-04-25T05:14:24;8.50;;;3.80;;
2850;SDS011;1433;49.976;8.342;2023-04-25T05:16:52;8.70;;;5.47;;
2850;SDS011;1433;49.976;8.342;2023-04-25T05:19:39;6.53;;;4.00;;
2850;SDS011;1433;49.976;8.342;2023-04-25T05:22:18;6.70;;;4.63;;
2850;SDS011;1433;49.976;8.342;2023-04-25T05:25:04;6.90;;;4.70;;
2850;SDS011;1433;49.976;8.342;2023-04-25T05:27:33;8.47;;;4.17;;
2850;SDS011;1433;49.976;8.342;2023-04-25T05:30:19;10.40;;;4.70;;
2850;SDS011;1433;49.976;8.342;2023-04-25T05:32:51;8.27;;;5.20;;
2850;SDS011;1433;49.976;8.342;2023-04-25T05:35:18;4.70;;;3.20;;
2850;SDS011;1433;49.976;8.342;2023-04-25T05:37:46;9.13;;;4.30;;
2850;SDS011;1433;49.976;8.342;2023-04-25T05:40:13;7.43;;;3.57;;
2850;SDS011;1433;49.976;8.342;2023-04-25T05:42:45;5.80;;;4.40;;
2850;SDS011;1433;49.976;8.342;2023-04-25T05:45:30;7.93;;;3.30;;
2850;SDS011;1433;49.976;8.342;2023-04-25T05:48:15;5.00;;;4.20;;
2850;SDS011;1433;49.976;8.342;2023-04-25T05:50:43;9.17;;;5.23;;
2850;SDS011;1433;49.976;8.342;2023-04-25T05:53:11;7.80;;;4.60;;
2850;SDS011;1433;49.976;8.342;2023-04-25T05:55:42;8.00;;;4.33;;
2850;SDS011;1433;49.976;8.342;2023-04-25T05:58:13;10.00;;;5.10;;
2850;SDS011;1433;49.976;8.342;2023-04-25T06:00:39;10.07;;;4.10;;
2850;SDS011;1433;49.976;8.342;2023-04-25T06:03:07;4.53;;;3.00;;
2850;SDS011;1433;49.976;8.342;2023-04-25T06:05:35;5.97;;;3.97;;
2850;SDS011;1433;49.976;8.342;2023-04-25T06:08:02;4.93;;;3.60;;
2850;SDS011;1433;49.976;8.342;2023-04-25T06:10:29;6.20;;;3.77;;
2850;SDS011;1433;49.976;8.342;2023-04-25T06:12:55;4.20;;;3.80;;
2850;SDS011;1433;49.976;8.342;2023-04-25T06:15:22;4.00;;;3.27;;
2850;SDS011;1433;49.976;8.342;2023-04-25T06:17:49;6.10;;;3.60;;
2850;SDS011;1433;49.976;8.342;2023-04-25T06:20:15;3.43;;;2.93;;
2850;SDS011;1433;49.976;8.342;2023-04-25T06:22:41;13.30;;;3.80;;
2850;SDS011;1433;49.976;8.342;2023-04-25T06:25:08;12.13;;;5.23;;
2850;SDS011;1433;49.976;8.342;2023-04-25T06:27:35;5.60;;;4.00;;
2850;SDS011;1433;49.976;8.342;2023-04-25T06:30:01;6.00;;;3.67;;
2850;SDS011;1433;49.976;8.342;2023-04-25T06:32:29;5.17;;;3.53;;
2850;SDS011;1433;49.976;8.342;2023-04-25T06:34:58;4.70;;;4.07;;
2850;SDS011;1433;49.976;8.342;2023-04-25T06:37:24;5.10;;;3.80;;
2850;SDS011;1433;49.976;8.342;2023-04-25T06:39:51;6.40;;;5.10;;
2850;SDS011;1433;49.976;8.342;2023-04-25T06:42:17;4.47;;;3.77;;
2850;SDS011;1433;49.976;8.342;2023-04-25T06:44:47;3.30;;;2.77;;
2850;SDS011;1433;49.976;8.342;2023-04-25T06:47:15;9.37;;;3.97;;
2850;SDS011;1433;49.976;8.342;2023-04-25T06:49:41;5.87;;;3.43;;
2850;SDS011;1433;49.976;8.342;2023-04-25T06:52:08;4.97;;;3.10;;
2850;SDS011;1433;49.976;8.342;2023-04-25T06:54:34;3.90;;;2.93;;
2850;SDS011;1433;49.976;8.342;2023-04-25T06:57:03;7.03;;;3.70;;
2850;SDS011;1433;49.976;8.342;2023-04-25T06:59:31;3.93;;;3.00;;
2850;SDS011;1433;49.976;8.342;2023-04-25T07:01:58;7.90;;;3.83;;
2850;SDS011;1433;49.976;8.342;2023-04-25T07:04:25;7.87;;;4.80;;
2850;SDS011;1433;49.976;8.342;2023-04-25T07:06:53;4.57;;;3.53;;
2850;SDS011;1433;49.976;8.342;2023-04-25T07:09:22;4.13;;;3.73;;
2850;SDS011;1433;49.976;8.342;2023-04-25T07:11:49;7.67;;;4.60;;
2850;SDS011;1433;49.976;8.342;2023-04-25T07:14:15;3.63;;;3.27;;
2850;SDS011;1433;49.976;8.342;2023-04-25T07:16:41;5.13;;;3.57;;
2850;SDS011;1433;49.976;8.342;2023-04-25T07:19:08;5.13;;;2.77;;
2850;SDS011;1433;49.976;8.342;2023-04-25T07:21:35;4.53;;;3.40;;
2850;SDS011;1433;49.976;8.342;2023-04-25T07:24:02;5.83;;;4.00;;
2850;SDS011;1433;49.976;8.342;2023-04-25T07:26:30;4.63;;;3.13;;
2850;SDS011;1433;49.976;8.342;2023-04-25T07:29:17;4.80;;;3.03;;
2850;SDS011;1433;49.976;8.342;2023-04-25T07:31:43;4.70;;;4.00;;
2850;SDS011;1433;49.976;8.342;2023-04-25T07:34:10;4.37;;;2.73;;
2850;SDS011;1433;49.976;8.342;2023-04-25T07:36:37;3.30;;;3.00;;
2850;SDS011;1433;49.976;8.342;2023-04-25T07:39:04;5.87;;;4.63;;
2850;SDS011;1433;49.976;8.342;2023-04-25T07:41:31;6.33;;;3.70;;
2850;SDS011;1433;49.976;8.342;2023-04-25T07:43:57;6.17;;;3.77;;
2850;SDS011;1433;49.976;8.342;2023-04-25T07:46:24;8.93;;;3.53;;
2850;SDS011;1433;49.976;8.342;2023-04-25T07:48:52;5.43;;;3.53;;
2850;SDS011;1433;49.976;8.342;2023-04-25T07:51:18;9.67;;;3.83;;
2850;SDS011;1433;49.976;8.342;2023-04-25T07:53:46;2.60;;;2.37;;
2850;SDS011;1433;49.976;8.342;2023-04-25T07:56:14;6.93;;;3.00;;
2850;SDS011;1433;49.976;8.342;2023-04-25T07:58:42;3.20;;;2.90;;
2850;SDS011;1433;49.976;8.342;2023-04-25T08:01:10;6.50;;;3.50;;
2850;SDS011;1433;49.976;8.342;2023-04-25T08:03:36;5.73;;;2.70;;
2850;SDS011;1433;49.976;8.342;2023-04-25T08:06:04;1.97;;;1.60;;
2850;SDS011;1433;49.976;8.342;2023-04-25T08:08:32;6.00;;;1.97;;
2850;SDS011;1433;49.976;8.342;2023-04-25T08:10:58;3.47;;;2.20;;
2850;SDS011;1433;49.976;8.342;2023-04-25T08:13:26;2.43;;;1.70;;
2850;SDS011;1433;49.976;8.342;2023-04-25T08:15:52;2.80;;;1.77;;
2850;SDS011;1433;49.976;8.342;2023-04-25T08:18:19;3.70;;;2.40;;
2850;SDS011;1433;49.976;8.342;2023-04-25T08:20:47;2.70;;;2.00;;
2850;SDS011;1433;49.976;8.342;2023-04-25T08:23:14;3.13;;;2.10;;
2850;SDS011;1433;49.976;8.342;2023-04-25T08:25:42;2.80;;;2.10;;
2850;SDS011;1433;49.976;8.342;2023-04-25T08:28:16;3.37;;;2.60;;
2850;SDS011;1433;49.976;8.342;2023-04-25T08:30:44;4.03;;;2.30;;
2850;SDS011;1433;49.976;8.342;2023-04-25T08:33:12;3.90;;;1.90;;
2850;SDS011;1433;49.976;8.342;2023-04-25T08:35:52;3.23;;;2.00;;
2850;SDS011;1433;49.976;8.342;2023-04-25T08:38:19;4.33;;;2.27;;
2850;SDS011;1433;49.976;8.342;2023-04-25T08:40:45;3.93;;;1.73;;
2850;SDS011;1433;49.976;8.342;2023-04-25T08:43:18;3.43;;;2.33;;
2850;SDS011;1433;49.976;8.342;2023-04-25T08:45:46;3.60;;;1.80;;
2850;SDS011;1433;49.976;8.342;2023-04-25T08:48:33;2.13;;;1.93;;
2850;SDS011;1433;49.976;8.342;2023-04-25T08:51:08;2.37;;;1.80;;
2850;SDS011;1433;49.976;8.342;2023-04-25T08:53:35;2.83;;;2.33;;
2850;SDS011;1433;49.976;8.342;2023-04-25T08:56:03;2.50;;;1.30;;
2850;SDS011;1433;49.976;8.342;2023-04-25T08:58:34;2.50;;;2.03;;
2850;SDS011;1433;49.976;8.342;2023-04-25T09:01:01;1.67;;;1.53;;
2850;SDS011;1433;49.976;8.342;2023-04-25T09:03:29;2.80;;;2.03;;
2850;SDS011;1433;49.976;8.342;2023-04-25T09:05:56;3.00;;;1.70;;
2850;SDS011;1433;49.976;8.342;2023-04-25T09:08:23;2.03;;;1.93;;
2850;SDS011;1433;49.976;8.342;2023-04-25T09:10:50;2.70;;;1.80;;
2850;SDS011;1433;49.976;8.342;2023-04-25T09:13:24;2.60;;;2.37;;
2850;SDS011;1433;49.976;8.342;2023-04-25T09:16:06;3.20;;;2.47;;
2850;SDS011;1433;49.976;8.342;2023-04-25T09:18:50;2.87;;;2.57;;
2850;SDS011;1433;49.976;8.342;2023-04-25T09:21:17;5.93;;;2.40;;
2850;SDS011;1433;49.976;8.342;2023-04-25T09:23:46;3.93;;;2.03;;
2850;SDS011;1433;49.976;8.342;2023-04-25T09:26:14;3.93;;;2.53;;
2850;SDS011;1433;49.976;8.342;2023-04-25T09:28:43;4.13;;;2.40;;
2850;SDS011;1433;49.976;8.342;2023-04-25T09:31:12;2.50;;;2.27;;
2850;SDS011;1433;49.976;8.342;2023-04-25T09:34:00;9.43;;;2.10;;
2850;SDS011;1433;49.976;8.342;2023-04-25T09:36:27;2.77;;;2.57;;
2850;SDS011;1433;49.976;8.342;2023-04-25T09:39:12;3.27;;;2.97;;
2850;SDS011;1433;49.976;8.342;2023-04-25T09:41:43;3.20;;;2.50;;
2850;SDS011;1433;49.976;8.342;2023-04-25T09:44:12;2.80;;;2.40;;
2850;SDS011;1433;49.976;8.342;2023-04-25T09:46:40;3.20;;;3.00;;
2850;SDS011;1433;49.976;8.342;2023-04-25T09:49:15;4.10;;;3.10;;
2850;SDS011;1433;49.976;8.342;2023-04-25T09:51:59;5.40;;;2.60;;
2850;SDS011;1433;49.976;8.342;2023-04-25T09:54:26;3.63;;;3.10;;
2850;SDS011;1433;49.976;8.342;2023-04-25T09:56:54;2.83;;;2.60;;
2850;SDS011;1433;49.976;8.342;2023-04-25T09:59:21;6.50;;;2.60;;
2850;SDS011;1433;49.976;8.342;2023-04-25T10:01:49;3.40;;;2.83;;
2850;SDS011;1433;49.976;8.342;2023-04-25T10:04:23;3.73;;;3.43;;
2850;SDS011;1433;49.976;8.342;2023-04-25T10:06:52;3.70;;;3.00;;
2850;SDS011;1433;49.976;8.342;2023-04-25T10:09:21;2.80;;;2.53;;
2850;SDS011;1433;49.976;8.342;2023-04-25T10:11:49;3.70;;;3.10;;
2850;SDS011;1433;49.976;8.342;2023-04-25T10:14:18;3.97;;;3.67;;
2850;SDS011;1433;49.976;8.342;2023-04-25T10:16:45;4.60;;;3.20;;
2850;SDS011;1433;49.976;8.342;2023-04-25T10:19:13;4.60;;;3.93;;
2850;SDS011;1433;49.976;8.342;2023-04-25T10:21:40;4.23;;;3.40;;
2850;SDS011;1433;49.976;8.342;2023-04-25T10:24:12;3.73;;;3.33;;
2850;SDS011;1433;49.976;8.342;2023-04-25T10:26:39;5.93;;;4.30;;
2850;SDS011;1433;49.976;8.342;2023-04-25T10:29:06;4.30;;;3.90;;
2850;SDS011;1433;49.976;8.342;2023-04-25T10:31:32;5.50;;;4.97;;
2850;SDS011;1433;49.976;8.342;2023-04-25T10:34:01;3.40;;;3.07;;
2850;SDS011;1433;49.976;8.342;2023-04-25T10:36:30;3.50;;;3.10;;
2850;SDS011;1433;49.976;8.342;2023-04-25T10:39:03;3.53;;;3.00;;
2850;SDS011;1433;49.976;8.342;2023-04-25T10:41:48;5.40;;;3.73;;
2850;SDS011;1433;49.976;8.342;2023-04-25T10:44:23;3.70;;;2.90;;
2850;SDS011;1433;49.976;8.342;2023-04-25T10:46:55;4.43;;;3.53;;
2850;SDS011;1433;49.976;8.342;2023-04-25T10:49:29;2.90;;;2.60;;
2850;SDS011;1433;49.976;8.342;2023-04-25T10:52:44;5.13;;;3.57;;
2850;SDS011;1433;49.976;8.342;2023-04-25T10:54:49;4.70;;;3.80;;
2850;SDS011;1433;49.976;8.342;2023-04-25T11:00:04;5.70;;;4.90;;
2850;SDS011;1433;49.976;8.342;2023-04-25T11:02:47;10.43;;;5.00;;
2850;SDS011;1433;49.976;8.342;2023-04-25T11:05:23;3.23;;;2.93;;
2850;SDS011;1433;49.976;8.342;2023-04-25T11:08:01;6.70;;;3.33;;
2850;SDS011;1433;49.976;8.342;2023-04-25T11:10:30;4.93;;;3.00;;
2850;SDS011;1433;49.976;8.342;2023-04-25T11:12:57;4.13;;;2.90;;
2850;SDS011;1433;49.976;8.342;2023-04-25T11:15:24;5.30;;;3.47;;
2850;SDS011;1433;49.976;8.342;2023-04-25T11:17:51;4.50;;;2.90;;
2850;SDS011;1433;49.976;8.342;2023-04-25T11:20:18;4.27;;;2.83;;
2850;SDS011;1433;49.976;8.342;2023-04-25T11:22:45;8.00;;;4.20;;
2850;SDS011;1433;49.976;8.342;2023-04-25T11:25:14;3.30;;;2.87;;
2850;SDS011;1433;49.976;8.342;2023-04-25T11:30:20;3.63;;;2.67;;
2850;SDS011;1433;49.976;8.342;2023-04-25T11:32:47;8.00;;;3.60;;
2850;SDS011;1433;49.976;8.342;2023-04-25T11:35:14;3.90;;;3.20;;
2850;SDS011;1433;49.976;8.342;2023-04-25T11:37:41;2.60;;;2.40;;
2850;SDS011;1433;49.976;8.342;2023-04-25T11:40:08;2.97;;;2.77;;
2850;SDS011;1433;49.976;8.342;2023-04-25T11:42:39;2.77;;;2.50;;
2850;SDS011;1433;49.976;8.342;2023-04-25T11:45:07;3.43;;;3.13;;
2850;SDS011;1433;49.976;8.342;2023-04-25T11:47:35;4.03;;;2.83;;
2850;SDS011;1433;49.976;8.342;2023-04-25T11:50:02;5.70;;;2.93;;
2850;SDS011;1433;49.976;8.342;2023-04-25T11:55:09;4.70;;;3.23;;
2850;SDS011;1433;49.976;8.342;2023-04-25T11:57:38;5.23;;;2.67;;
2850;SDS011;1433;49.976;8.342;2023-04-25T12:00:09;7.80;;;2.97;;
2850;SDS011;1433;49.976;8.342;2023-04-25T12:02:40;3.10;;;2.63;;
2850;SDS011;1433;49.976;8.342;2023-04-25T12:05:07;5.53;;;3.40;;
2850;SDS011;1433;49.976;8.342;2023-04-25T12:07:34;3.53;;;2.60;;
2850;SDS011;1433;49.976;8.342;2023-04-25T12:10:07;4.60;;;2.80;;
2850;SDS011;1433;49.976;8.342;2023-04-25T12:12:36;4.00;;;2.40;;
2850;SDS011;1433;49.976;8.342;2023-04-25T12:15:13;5.23;;;2.93;;
2850;SDS011;1433;49.976;8.342;2023-04-25T12:17:46;2.43;;;2.23;;
2850;SDS011;1433;49.976;8.342;2023-04-25T12:20:14;5.67;;;2.60;;
2850;SDS011;1433;49.976;8.342;2023-04-25T12:22:47;2.53;;;2.33;;
2850;SDS011;1433;49.976;8.342;2023-04-25T12:25:13;5.20;;;3.23;;
2850;SDS011;1433;49.976;8.342;2023-04-25T12:27:41;5.83;;;2.37;;
2850;SDS011;1433;49.976;8.342;2023-04-25T12:30:08;3.33;;;2.70;;
2850;SDS011;1433;49.976;8.342;2023-04-25T12:32:35;4.60;;;2.67;;
2850;SDS011;1433;49.976;8.342;2023-04-25T12:35:02;4.73;;;3.20;;
2850;SDS011;1433;49.976;8.342;2023-04-25T12:37:29;3.07;;;2.23;;
2850;SDS011;1433;49.976;8.342;2023-04-25T12:39:55;4.43;;;2.77;;
2850;SDS011;1433;49.976;8.342;2023-04-25T12:42:21;6.30;;;2.40;;
2850;SDS011;1433;49.976;8.342;2023-04-25T12:44:48;3.70;;;2.70;;
2850;SDS011;1433;49.976;8.342;2023-04-25T12:47:14;6.00;;;3.00;;
2850;SDS011;1433;49.976;8.342;2023-04-25T12:49:41;3.10;;;2.10;;
2850;SDS011;1433;49.976;8.342;2023-04-25T12:52:07;3.50;;;3.03;;
2850;SDS011;1433;49.976;8.342;2023-04-25T12:54:33;2.47;;;2.27;;
2850;SDS011;1433;49.976;8.342;2023-04-25T12:56:59;3.37;;;3.07;;
2850;SDS011;1433;49.976;8.342;2023-04-25T12:59:27;6.57;;;2.80;;
2850;SDS011;1433;49.976;8.342;2023-04-25T13:01:54;4.27;;;2.73;;
2850;SDS011;1433;49.976;8.342;2023-04-25T13:04:20;4.10;;;2.50;;
2850;SDS011;1433;49.976;8.342;2023-04-25T13:06:47;3.30;;;2.50;;
2850;SDS011;1433;49.976;8.342;2023-04-25T13:09:13;3.83;;;3.47;;
2850;SDS011;1433;49.976;8.342;2023-04-25T13:11:41;3.10;;;2.90;;
2850;SDS011;1433;49.976;8.342;2023-04-25T13:14:07;4.43;;;2.20;;
2850;SDS011;1433;49.976;8.342;2023-04-25T13:16:33;2.83;;;2.50;;
2850;SDS011;1433;49.976;8.342;2023-04-25T13:19:00;4.07;;;2.20;;
2850;SDS011;1433;49.976;8.342;2023-04-25T13:21:26;3.07;;;1.97;;
2850;SDS011;1433;49.976;8.342;2023-04-25T13:23:52;2.63;;;2.17;;
2850;SDS011;1433;49.976;8.342;2023-04-25T13:26:22;4.73;;;2.20;;
2850;SDS011;1433;49.976;8.342;2023-04-25T13:28:48;5.13;;;2.03;;
2850;SDS011;1433;49.976;8.342;2023-04-25T13:31:14;4.20;;;2.70;;
2850;SDS011;1433;49.976;8.342;2023-04-25T13:33:40;3.00;;;1.90;;
2850;SDS011;1433;49.976;8.342;2023-04-25T13:36:06;2.50;;;2.30;;
2850;SDS011;1433;49.976;8.342;2023-04-25T13:38:33;4.90;;;2.20;;
2850;SDS011;1433;49.976;8.342;2023-04-25T13:40:59;3.63;;;3.20;;
2850;SDS011;1433;49.976;8.342;2023-04-25T13:43:26;2.37;;;2.20;;
2850;SDS011;1433;49.976;8.342;2023-04-25T13:45:52;3.40;;;2.33;;
2850;SDS011;1433;49.976;8.342;2023-04-25T13:48:18;4.13;;;1.90;;
2850;SDS011;1433;49.976;8.342;2023-04-25T13:50:45;3.53;;;2.20;;
2850;SDS011;1433;49.976;8.342;2023-04-25T13:53:12;3.83;;;2.13;;
2850;SDS011;1433;49.976;8.342;2023-04-25T13:55:38;4.43;;;2.40;;
2850;SDS011;1433;49.976;8.342;2023-04-25T13:58:04;2.67;;;2.17;;
2850;SDS011;1433;49.976;8.342;2023-04-25T14:00:36;2.23;;;2.00;;
2850;SDS011;1433;49.976;8.342;2023-04-25T14:03:08;2.63;;;1.80;;
2850;SDS011;1433;49.976;8.342;2023-04-25T14:05:35;3.53;;;2.37;;
2850;SDS011;1433;49.976;8.342;2023-04-25T14:08:06;3.47;;;2.33;;
2850;SDS011;1433;49.976;8.342;2023-04-25T14:10:33;4.53;;;2.70;;
2850;SDS011;1433;49.976;8.342;2023-04-25T14:13:00;3.03;;;2.37;;
2850;SDS011;1433;49.976;8.342;2023-04-25T14:15:27;2.23;;;2.00;;
2850;SDS011;1433;49.976;8.342;2023-04-25T14:17:53;1.97;;;1.83;;
2850;SDS011;1433;49.976;8.342;2023-04-25T14:20:19;2.57;;;2.23;;
2850;SDS011;1433;49.976;8.342;2023-04-25T14:22:46;1.57;;;1.47;;
2850;SDS011;1433;49.976;8.342;2023-04-25T14:25:13;2.47;;;2.27;;
2850;SDS011;1433;49.976;8.342;2023-04-25T14:27:39;2.30;;;2.00;;
2850;SDS011;1433;49.976;8.342;2023-04-25T14:30:06;3.87;;;2.60;;
2850;SDS011;1433;49.976;8.342;2023-04-25T14:32:34;4.40;;;2.43;;
2850;SDS011;1433;49.976;8.342;2023-04-25T14:35:00;3.10;;;2.50;;
2850;SDS011;1433;49.976;8.342;2023-04-25T14:37:27;3.30;;;2.93;;
2850;SDS011;1433;49.976;8.342;2023-04-25T14:39:53;3.40;;;2.60;;
2850;SDS011;1433;49.976;8.342;2023-04-25T14:42:19;5.10;;;2.47;;
2850;SDS011;1433;49.976;8.342;2023-04-25T14:44:45;2.90;;;1.90;;
2850;SDS011;1433;49.976;8.342;2023-04-25T14:47:12;2.03;;;1.80;;
2850;SDS011;1433;49.976;8.342;2023-04-25T14:49:38;2.97;;;2.20;;
2850;SDS011;1433;49.976;8.342;2023-04-25T14:52:05;4.30;;;3.80;;
2850;SDS011;1433;49.976;8.342;2023-04-25T14:54:31;3.87;;;2.40;;
2850;SDS011;1433;49.976;8.342;2023-04-25T14:56:57;2.10;;;1.90;;
2850;SDS011;1433;49.976;8.342;2023-04-25T14:59:23;3.20;;;2.87;;
2850;SDS011;1433;49.976;8.342;2023-04-25T15:01:50;2.63;;;2.00;;
2850;SDS011;1433;49.976;8.342;2023-04-25T15:04:16;4.17;;;2.07;;
2850;SDS011;1433;49.976;8.342;2023-04-25T15:06:43;3.00;;;2.43;;
2850;SDS011;1433;49.976;8.342;2023-04-25T15:09:09;3.20;;;2.40;;
2850;SDS011;1433;49.976;8.342;2023-04-25T15:11:36;2.70;;;1.83;;
2850;SDS011;1433;49.976;8.342;2023-04-25T15:14:03;5.57;;;2.53;;
2850;SDS011;1433;49.976;8.342;2023-04-25T15:16:44;4.17;;;2.10;;
2850;SDS011;1433;49.976;8.342;2023-04-25T15:19:11;2.33;;;2.13;;
2850;SDS011;1433;49.976;8.342;2023-04-25T15:21:53;3.03;;;2.10;;
2850;SDS011;1433;49.976;8.342;2023-04-25T15:24:19;3.50;;;2.40;;
2850;SDS011;1433;49.976;8.342;2023-04-25T15:26:47;3.60;;;1.50;;
2850;SDS011;1433;49.976;8.342;2023-04-25T15:29:13;2.90;;;2.00;;
2850;SDS011;1433;49.976;8.342;2023-04-25T15:31:40;2.73;;;2.43;;